Time;durP1;ratioP1;P1;durP2;ratioP2;P2;SDS_P1;SDS_P2;PMS_P1;PMS_P2;Temp;Humidity;BMP_temperature;BMP_pressure;BME280_temperature;BME280_humidity;BME280_pressure;Samples;Min_cycle;Max_cycle;Signal;HPM_P1;HPM_P2
2021/08/10 00:01:01;;;;;;;;;;;17.40;97.10;;;17.21;87.55;100569.63;5009715;28;19991;-89
2021/08/10 00:03:29;;;;;;;;;;;17.30;97.10;;;17.20;87.37;100567.91;5009782;28;19925;-88
2021/08/10 00:05:56;;;;;;;;;;;17.30;97.10;;;17.18;87.44;100565.41;5009407;28;19928;-88
2021/08/10 00:08:24;;;;;;;;;;;17.30;97.10;;;17.16;87.33;100561.19;5009628;28;19980;-88
2021/08/10 00:10:51;;;;;;;;;;;17.30;97.10;;;17.13;87.16;100562.47;5009502;28;20511;-88
2021/08/10 00:13:20;;;;;;;;;;;17.20;97.00;;;17.10;87.38;100567.63;5009430;28;20012;-88
2021/08/10 00:15:47;;;;;;;;;;;17.20;97.10;;;17.12;87.30;100562.72;5009385;28;20432;-88
2021/08/10 00:18:15;;;;;;;;;;;17.20;97.20;;;17.09;87.09;100565.91;5009283;28;19925;-88
2021/08/10 00:20:42;;;;;;;;;;;17.20;97.00;;;17.09;87.22;100566.75;4991753;28;20029;-89
2021/08/10 00:23:09;;;;;;;;;;;17.20;97.10;;;17.10;86.88;100567.63;5009471;28;19927;-89
2021/08/10 00:25:37;;;;;;;;;;;17.10;97.00;;;17.09;86.64;100572.25;4991704;28;19921;-89
2021/08/10 00:28:05;;;;;;;;;;;17.10;97.20;;;17.06;86.84;100564.47;5009083;28;19932;-89
2021/08/10 00:30:32;;;;;;;;;;;17.10;97.10;;;17.05;86.68;100576.53;5009397;28;19979;-89
2021/08/10 00:32:59;;;;;;;;;;;17.10;97.10;;;17.05;86.69;100567.44;4991664;28;20008;-89
2021/08/10 00:35:27;;;;;;;;;;;17.00;97.20;;;17.03;86.40;100567.66;4991540;28;20020;-88
2021/08/10 00:37:54;;;;;;;;;;;17.00;97.30;;;17.03;86.74;100570.41;4991281;28;20344;-88
2021/08/10 00:40:22;;;;;;;;;;;17.00;97.20;;;17.00;86.75;100568.97;4991514;28;20017;-87
2021/08/10 00:42:51;;;;;;;;;;;17.00;97.30;;;17.00;86.57;100559.84;4991534;28;19952;-88
2021/08/10 00:45:18;;;;;;;;;;;17.00;97.30;;;17.00;86.53;100562.59;4991318;28;19926;-88
2021/08/10 00:47:46;;;;;;;;;;;16.90;97.30;;;16.96;86.47;100561.38;4991174;28;20298;-88
2021/08/10 00:50:14;;;;;;;;;;;16.90;97.20;;;16.96;86.35;100561.38;4991396;28;20291;-88
2021/08/10 00:52:44;;;;;;;;;;;16.90;97.30;;;16.95;86.34;100565.22;4991528;28;20306;-88
2021/08/10 00:55:13;;;;;;;;;;;16.80;97.30;;;16.92;86.11;100555.47;4991399;28;19925;-88
2021/08/10 00:57:40;;;;;;;;;;;16.90;97.30;;;16.92;86.16;100560.16;5003980;28;19975;-88
2021/08/10 01:00:11;;;;;;;;;;;16.90;97.30;;;16.90;86.32;100551.28;5007694;28;19925;-88
2021/08/10 01:02:38;;;;;;;;;;;16.80;97.30;;;16.91;85.97;100563.97;5007771;28;19932;-89
2021/08/10 01:05:08;;;;;;;;;;;16.80;97.30;;;16.89;86.15;100560.63;5007692;28;20020;-89
2021/08/10 01:07:41;;;;;;;;;;;16.80;97.30;;;16.86;86.18;100561.06;5007246;28;19926;-88
2021/08/10 01:10:17;;;;;;;;;;;16.80;97.40;;;16.85;86.33;100553.88;5010633;28;19932;-88
2021/08/10 01:12:52;;;;;;;;;;;16.80;97.40;;;16.84;86.31;100550.28;5011374;28;19922;-89
2021/08/10 01:15:24;;;;;;;;;;;16.80;97.40;;;16.82;86.43;100549.66;5011293;28;19925;-89
2021/08/10 01:17:57;;;;;;;;;;;16.80;97.40;;;16.81;86.33;100546.06;5010879;28;19925;-88
2021/08/10 01:21:11;;;;;;;;;;;16.80;97.60;;;16.81;86.23;100554.31;5011206;28;20537;-88
2021/08/10 01:23:45;;;;;;;;;;;16.70;97.50;;;16.80;86.19;100554.53;4993984;28;19995;-89
2021/08/10 01:26:23;;;;;;;;;;;16.70;97.40;;;16.80;86.14;100551.78;5010702;28;20648;-88
2021/08/10 01:28:53;;;;;;;;;;;16.70;97.50;;;16.76;86.00;100556.88;5011481;28;19995;-88
2021/08/10 01:31:28;;;;;;;;;;;16.70;97.30;;;16.77;86.17;100557.72;5011085;28;20047;-88
2021/08/10 01:34:04;;;;;;;;;;;16.70;97.30;;;16.76;86.06;100553.28;5011101;28;19936;-89
2021/08/10 01:36:34;;;;;;;;;;;16.70;97.50;;;16.73;86.49;100540.81;5010687;28;20016;-88
2021/08/10 01:39:02;;;;;;;;;;;16.70;97.50;;;16.72;86.54;100539.16;4997595;28;19925;-88
2021/08/10 01:41:35;;;;;;;;;;;16.70;97.60;;;16.72;86.38;100543.81;4991339;28;20055;-88
2021/08/10 01:44:05;;;;;;;;;;;16.70;97.50;;;16.71;86.21;100536.63;4991230;28;20346;-87
2021/08/10 01:46:34;;;;;;;;;;;16.70;97.50;;;16.69;86.25;100536.84;4990820;28;19925;-88
2021/08/10 01:49:04;;;;;;;;;;;16.70;97.60;;;16.70;86.35;100530.28;4991044;28;20291;-89
2021/08/10 01:51:32;;;;;;;;;;;16.60;97.50;;;16.70;86.39;100529.47;4991043;28;19925;-88
2021/08/10 01:54:04;;;;;;;;;;;16.60;97.40;;;16.71;86.15;100531.13;4991009;28;19932;-89
2021/08/10 01:56:34;;;;;;;;;;;16.60;97.40;;;16.69;86.05;100539.59;4990619;28;19972;-88
2021/08/10 01:59:03;;;;;;;;;;;16.60;97.50;;;16.66;86.05;100536.44;4991044;28;19922;-88
2021/08/10 02:01:34;;;;;;;;;;;16.60;97.60;;;16.62;86.51;100530.59;4990942;28;20016;-89
2021/08/10 02:04:03;;;;;;;;;;;16.60;97.70;;;16.62;86.58;100527.84;4990825;28;19933;-89
2021/08/10 02:06:31;;;;;;;;;;;16.60;97.80;;;16.66;86.40;100529.06;4990530;28;19922;-89
2021/08/10 02:09:02;;;;;;;;;;;16.60;97.70;;;16.64;86.59;100520.22;4992251;28;19926;-88
2021/08/10 02:11:31;;;;;;;;;;;16.60;97.80;;;16.65;86.61;100516.38;4990786;28;19941;-89
2021/08/10 02:14:03;;;;;;;;;;;16.60;98.00;;;16.66;86.77;100518.06;4990596;28;20453;-89
2021/08/10 02:16:36;;;;;;;;;;;16.60;98.10;;;16.65;86.94;100526.53;4990260;28;19933;-88
2021/08/10 02:19:05;;;;;;;;;;;16.70;98.30;;;16.64;87.05;100520.22;4990408;28;19980;-89
2021/08/10 02:21:41;;;;;;;;;;;16.70;98.30;;;16.67;87.14;100529.91;4990353;28;20438;-88
2021/08/10 02:24:13;;;;;;;;;;;16.70;98.30;;;16.66;87.23;100531.81;4990490;28;19926;-88
2021/08/10 02:26:46;;;;;;;;;;;16.70;98.30;;;16.67;87.47;100538.97;4989996;28;19969;-88
2021/08/10 02:29:18;;;;;;;;;;;16.70;98.30;;;16.69;87.49;100539.59;4990363;28;19932;-88
2021/08/10 02:31:48;;;;;;;;;;;16.80;98.30;;;16.67;87.65;100536.22;4991771;28;19929;-89
2021/08/10 02:34:17;;;;;;;;;;;16.80;98.30;;;16.67;87.81;100535.41;4990194;28;20298;-89
2021/08/10 02:36:45;;;;;;;;;;;16.80;98.30;;;16.69;87.74;100531.34;4991269;28;20457;-89
2021/08/10 02:39:13;;;;;;;;;;;16.80;98.30;;;16.69;88.02;100531.34;4989929;28;19926;-88
2021/08/10 02:41:43;;;;;;;;;;;16.80;98.30;;;16.69;87.94;100531.34;4990339;28;19984;-88
2021/08/10 02:44:11;;;;;;;;;;;16.90;98.40;;;16.71;87.94;100537.47;4990258;28;19926;-88
2021/08/10 02:46:40;;;;;;;;;;;16.90;98.40;;;16.71;88.14;100534.72;4989721;28;19948;-88
2021/08/10 02:49:10;;;;;;;;;;;16.90;98.40;;;16.70;88.42;100541.28;4990015;28;19926;-88
2021/08/10 02:51:38;;;;;;;;;;;16.90;98.40;;;16.69;88.35;100536.00;4989915;28;20020;-88
2021/08/10 02:54:06;;;;;;;;;;;16.90;98.40;;;16.70;88.52;100535.78;4989923;28;19922;-88
2021/08/10 02:56:37;;;;;;;;;;;17.00;98.40;;;16.72;88.62;100538.31;5011172;23;19987;-84
2021/08/10 02:59:10;;;;;;;;;;;17.00;98.40;;;16.69;88.85;100534.09;5009154;28;20283;-84
2021/08/10 03:01:42;;;;;;;;;;;17.00;98.40;;;16.70;88.99;100546.78;5009200;28;20295;-84
2021/08/10 03:04:11;;;;;;;;;;;17.00;98.40;;;16.68;88.97;100554.41;5009141;28;20675;-84
2021/08/10 03:06:40;;;;;;;;;;;17.00;98.40;;;16.68;88.92;100559.91;5008884;28;20306;-84
2021/08/10 03:09:09;;;;;;;;;;;17.00;98.40;;;16.71;89.30;100570.44;5009126;28;20436;-84
2021/08/10 03:11:39;;;;;;;;;;;17.00;98.40;;;16.69;89.39;100566.25;5008971;28;19932;-84
2021/08/10 03:14:11;;;;;;;;;;;17.00;98.40;;;16.65;89.50;100565.84;5009012;28;19984;-84
2021/08/10 03:16:40;;;;;;;;;;;17.00;98.40;;;16.63;90.08;100584.47;5009900;28;19925;-84
2021/08/10 03:19:10;;;;;;;;;;;17.00;98.60;;;16.60;90.23;100582.16;5008962;28;19925;-84
2021/08/10 03:21:39;;;;;;;;;;;17.00;98.80;;;16.59;90.22;100583.22;5008820;28;19925;-84
2021/08/10 03:24:07;;;;;;;;;;;17.10;98.60;;;16.58;90.43;100581.53;5010197;28;19925;-84
2021/08/10 03:26:35;;;;;;;;;;;17.10;98.50;;;16.55;91.03;100576.50;5009846;28;19932;-84
2021/08/10 03:29:04;;;;;;;;;;;17.10;98.50;;;16.54;90.90;100580.31;5008621;28;19928;-84
2021/08/10 03:31:33;;;;;;;;;;;17.10;98.50;;;16.58;90.92;100587.88;5008236;28;19980;-84
2021/08/10 03:34:00;;;;;;;;;;;17.10;98.50;;;16.52;91.27;100586.00;5008695;28;19925;-84
2021/08/10 03:36:29;;;;;;;;;;;17.10;98.50;;;16.56;91.12;100589.16;5008342;28;20020;-83
2021/08/10 03:38:57;;;;;;;;;;;17.10;98.50;;;16.53;91.57;100592.38;5008540;28;19925;-83
2021/08/10 03:41:27;;;;;;;;;;;17.10;98.70;;;16.53;91.89;100595.13;5008567;28;19925;-83
2021/08/10 03:43:56;;;;;;;;;;;17.10;98.70;;;16.48;91.93;100586.69;5008416;28;20378;-84
2021/08/10 03:46:23;;;;;;;;;;;17.10;98.50;;;16.50;91.86;100595.56;5007944;28;20401;-84
2021/08/10 03:48:51;;;;;;;;;;;17.10;98.60;;;16.48;92.00;100594.94;5005307;28;19933;-84
2021/08/10 03:51:19;;;;;;;;;;;17.10;98.90;;;16.52;92.13;100601.66;5008366;28;19926;-84
2021/08/10 03:53:47;;;;;;;;;;;17.10;99.10;;;16.53;91.75;100597.88;5008326;28;20397;-84
2021/08/10 03:56:22;;;;;;;;;;;17.10;99.00;;;16.50;91.73;100587.31;5007719;28;19926;-84
2021/08/10 03:58:49;;;;;;;;;;;17.10;99.10;;;16.53;92.01;100586.88;5008222;28;19925;-84
2021/08/10 04:01:20;;;;;;;;;;;17.00;99.20;;;16.57;91.76;100579.88;5008122;28;19979;-84
2021/08/10 04:03:51;;;;;;;;;;;17.00;99.10;;;16.64;91.33;100579.81;5009721;28;19925;-84
2021/08/10 04:06:19;;;;;;;;;;;17.00;99.30;;;16.68;91.06;100564.53;5007329;28;19976;-84
2021/08/10 04:08:46;;;;;;;;;;;17.00;99.10;;;16.68;90.62;100559.91;5008062;28;19925;-84
2021/08/10 04:11:16;;;;;;;;;;;17.00;99.00;;;16.69;90.38;100555.25;5008127;28;19964;-84
2021/08/10 04:13:49;;;;;;;;;;;17.00;98.90;;;16.65;89.85;100554.84;5008176;28;19937;-83
2021/08/10 04:16:18;;;;;;;;;;;17.00;98.60;;;16.63;90.32;100548.75;5007647;28;19921;-84
2021/08/10 04:18:45;;;;;;;;;;;17.00;98.70;;;16.63;90.35;100554.22;5008294;28;19929;-79
2021/08/10 04:21:13;;;;;;;;;;;17.00;98.70;;;16.63;90.19;100546.00;5008271;28;19926;-90
2021/08/10 04:23:41;;;;;;;;;;;17.00;98.80;;;16.67;89.99;100541.72;5008621;28;19932;-85
2021/08/10 04:28:44;;;;;;;;;;;17.00;98.90;;;16.65;89.91;100538.38;4969178;28;19932;-88
2021/08/10 04:31:14;;;;;;;;;;;16.90;98.80;;;16.66;89.87;100537.31;4952870;28;19926;-88
2021/08/10 04:33:41;;;;;;;;;;;17.00;98.80;;;16.64;89.61;100530.34;4970183;28;19926;-87
2021/08/10 04:36:08;;;;;;;;;;;16.90;98.50;;;16.63;89.63;100535.00;4968568;28;19968;-87
2021/08/10 04:38:36;;;;;;;;;;;16.90;98.70;;;16.63;89.13;100529.50;4968879;28;19933;-86
2021/08/10 04:41:04;;;;;;;;;;;16.80;98.30;;;16.63;88.73;100537.75;4952714;28;19922;-87
2021/08/10 04:43:45;;;;;;;;;;;16.80;98.20;;;16.62;88.57;100555.31;4953571;28;20406;-86
2021/08/10 04:46:14;;;;;;;;;;;16.70;98.20;;;16.60;88.44;100551.94;4972348;28;20461;-86
2021/08/10 04:48:41;;;;;;;;;;;16.70;98.00;;;16.57;88.06;100546.91;4974162;28;19926;-86
2021/08/10 04:51:12;;;;;;;;;;;16.60;97.70;;;16.55;87.57;100552.59;4972546;28;19984;-87
2021/08/10 04:53:40;;;;;;;;;;;16.60;97.70;;;16.53;87.75;100552.00;4956565;28;19957;-86
2021/08/10 04:56:09;;;;;;;;;;;16.60;97.60;;;16.52;87.76;100565.94;4972286;28;20032;-87
2021/08/10 04:58:36;;;;;;;;;;;16.60;97.60;;;16.49;87.58;100556.25;4956329;28;19933;-85
2021/08/10 05:01:03;;;;;;;;;;;16.60;97.50;;;16.50;87.35;100557.91;4973784;28;19933;-88
2021/08/10 05:03:35;;;;;;;;;;;16.50;97.40;;;16.51;87.19;100561.53;4956386;28;20466;-88
2021/08/10 05:06:04;;;;;;;;;;;16.50;97.50;;;16.52;86.76;100560.44;4973494;28;19926;-88
2021/08/10 05:08:32;;;;;;;;;;;16.60;97.20;;;16.51;86.86;100561.53;4956105;28;19925;-88
2021/08/10 05:11:01;;;;;;;;;;;16.60;97.00;;;16.51;86.93;100567.03;4956064;28;19922;-89
2021/08/10 05:13:29;;;;;;;;;;;16.70;96.90;;;16.52;86.84;100571.44;4972091;28;20390;-88
2021/08/10 05:15:57;;;;;;;;;;;16.70;96.60;;;16.51;86.83;100572.53;4971881;28;19926;-84
2021/08/10 05:18:25;;;;;;;;;;;16.80;96.30;;;16.51;86.96;100575.28;4955862;28;19993;-85
2021/08/10 05:20:55;;;;;;;;;;;16.90;96.20;;;16.51;87.17;100558.78;4971956;28;19926;-85
2021/08/10 05:23:22;;;;;;;;;;;16.90;96.00;;;16.50;87.16;100571.66;4971946;28;19925;-83
2021/08/10 05:25:49;;;;;;;;;;;16.90;95.70;;;16.52;87.13;100572.28;4955602;28;19993;-83
2021/08/10 05:28:17;;;;;;;;;;;17.00;95.70;;;16.55;87.15;100574.59;4955592;28;20398;-82
2021/08/10 05:30:45;;;;;;;;;;;17.00;95.60;;;16.53;87.33;100573.97;4971899;28;19922;-82
2021/08/10 05:33:14;;;;;;;;;;;17.00;95.60;;;16.55;87.21;100576.50;4971783;28;19933;-78
2021/08/10 05:35:41;;;;;;;;;;;17.10;95.50;;;16.58;87.73;100574.16;4955626;28;19933;-82
2021/08/10 05:38:10;;;;;;;;;;;17.20;95.50;;;16.60;87.76;100574.78;4971332;28;19960;-81
2021/08/10 05:40:39;;;;;;;;;;;17.30;95.10;;;16.63;87.55;100567.16;4973289;28;19929;-79
2021/08/10 05:43:06;;;;;;;;;;;17.30;94.70;;;16.66;87.68;100584.03;4973007;28;20013;-78
2021/08/10 05:45:34;;;;;;;;;;;17.40;94.50;;;16.65;88.36;100587.81;4971202;28;19933;-78
2021/08/10 05:48:05;;;;;;;;;;;17.50;94.70;;;16.63;88.97;100587.22;4955253;28;19933;-80
2021/08/10 05:50:32;;;;;;;;;;;17.60;94.50;;;16.66;89.14;100594.16;4953917;28;20382;-79
2021/08/10 05:53:00;;;;;;;;;;;17.70;94.40;;;16.63;89.67;100589.97;4954971;28;20032;-80
2021/08/10 05:55:29;;;;;;;;;;;17.70;94.70;;;16.67;89.79;100591.19;4954594;28;19930;-83
2021/08/10 05:57:56;;;;;;;;;;;17.80;94.70;;;16.70;89.98;100592.66;4954729;28;20409;-86
2021/08/10 06:00:23;;;;;;;;;;;17.80;95.10;;;16.71;90.15;100584.19;4955065;28;20351;-84
2021/08/10 06:02:59;;;;;;;;;;;17.70;95.40;;;16.72;89.72;100591.38;4954991;28;19997;-88
2021/08/10 06:05:28;;;;;;;;;;;17.60;95.30;;;16.72;90.22;100594.13;4955159;28;19928;-84
2021/08/10 06:07:56;;;;;;;;;;;17.70;95.50;;;16.73;90.29;100595.78;4954769;28;20347;-84
2021/08/10 06:10:27;;;;;;;;;;;17.70;95.30;;;16.75;90.56;100603.81;4954930;28;19926;-84
2021/08/10 06:12:56;;;;;;;;;;;17.80;95.20;;;16.75;90.95;100604.69;4954951;28;20350;-84
2021/08/10 06:15:23;;;;;;;;;;;18.00;94.80;;;16.77;91.11;100608.03;4954973;28;19989;-85
2021/08/10 06:17:52;;;;;;;;;;;18.30;93.30;;;16.85;90.84;100600.59;4954475;28;20365;-83
2021/08/10 06:20:21;;;;;;;;;;;18.50;92.50;;;16.86;90.93;100600.38;4954592;28;19926;-86
2021/08/10 06:22:48;;;;;;;;;;;18.70;91.60;;;16.88;91.66;100602.91;4954798;28;19922;-84
2021/08/10 06:25:17;;;;;;;;;;;18.90;91.50;;;16.90;91.79;100595.28;4954921;28;20052;-90
2021/08/10 06:27:47;;;;;;;;;;;19.20;89.70;;;16.98;91.80;100597.72;4972036;28;19926;-91
2021/08/10 06:30:16;;;;;;;;;;;19.40;88.70;;;17.04;91.65;100591.34;4954280;28;19932;-88
2021/08/10 06:32:43;;;;;;;;;;;19.60;88.10;;;17.10;91.54;100595.13;4954884;28;19948;-87
2021/08/10 06:35:17;;;;;;;;;;;19.80;87.00;;;17.12;91.64;100599.31;4954886;28;20016;-85
2021/08/10 06:37:44;;;;;;;;;;;19.90;86.50;;;17.16;91.42;100589.53;4954033;28;19953;-85
2021/08/10 06:40:13;;;;;;;;;;;20.00;86.20;;;17.23;91.89;100588.63;4954423;28;19926;-85
2021/08/10 06:42:48;;;;;;;;;;;20.10;86.30;;;17.26;93.28;100596.44;4954378;28;19926;-85
2021/08/10 06:45:19;;;;;;;;;;;20.10;87.20;;;17.31;92.89;100596.59;4954324;28;19972;-86
2021/08/10 06:47:48;;;;;;;;;;;20.20;86.60;;;17.35;92.79;100592.31;4947475;28;20503;-86
2021/08/10 06:50:22;;;;;;;;;;;20.20;86.20;;;17.41;93.28;100596.06;4965574;28;19987;-88
2021/08/10 06:52:49;;;;;;;;;;;20.30;87.10;;;17.47;94.00;100597.91;4973609;28;19965;-89
2021/08/10 06:55:18;;;;;;;;;;;20.30;87.00;;;17.52;93.86;100606.31;4973317;28;20449;-86
2021/08/10 06:57:51;;;;;;;;;;;20.40;87.30;;;17.58;93.92;100592.47;4990673;28;19925;-87
2021/08/10 07:00:20;;;;;;;;;;;20.40;87.60;;;17.61;93.11;100598.59;4973040;28;19976;-87
2021/08/10 07:02:48;;;;;;;;;;;20.20;87.10;;;17.55;93.05;100611.34;4970857;28;19925;-86
2021/08/10 07:05:17;;;;;;;;;;;20.00;87.80;;;17.53;92.30;100600.56;4963181;28;20020;-86
2021/08/10 07:07:45;;;;;;;;;;;19.90;88.00;;;17.56;92.24;100622.13;4979241;28;19972;-85
2021/08/10 07:10:14;;;;;;;;;;;19.90;88.50;;;17.62;94.16;100620.38;4958184;28;20550;-89
2021/08/10 07:12:41;;;;;;;;;;;19.90;89.20;;;17.69;94.49;100614.81;4953892;28;19928;-89
2021/08/10 07:15:09;;;;;;;;;;;20.00;89.60;;;17.78;94.36;100607.91;4953898;28;19926;-88
2021/08/10 07:17:37;;;;;;;;;;;20.20;89.00;;;17.82;93.72;100609.16;4953392;28;19922;-88
2021/08/10 07:20:15;;;;;;;;;;;20.30;88.50;;;17.87;93.66;100617.56;4969537;28;19965;-89
2021/08/10 07:22:45;;;;;;;;;;;20.30;88.70;;;17.90;94.46;100611.63;4953533;28;19925;-88
2021/08/10 07:25:12;;;;;;;;;;;20.30;89.90;;;17.93;94.38;100619.44;4953478;28;20393;-89
2021/08/10 07:27:41;;;;;;;;;;;20.30;89.50;;;17.91;94.10;100618.78;4969191;28;19921;-87
2021/08/10 07:30:10;;;;;;;;;;;20.30;89.20;;;17.88;94.31;100619.28;4957055;28;19932;-87
2021/08/10 07:32:41;;;;;;;;;;;20.20;89.20;;;17.93;93.43;100608.41;4958445;28;20013;-88
2021/08/10 07:35:10;;;;;;;;;;;20.10;89.00;;;17.90;93.55;100614.38;4960512;28;19925;-87
2021/08/10 07:37:40;;;;;;;;;;;20.00;89.60;;;17.90;94.18;100611.63;4976107;28;19941;-87
2021/08/10 07:40:10;;;;;;;;;;;19.90;90.70;;;17.94;94.46;100617.50;4977628;28;19980;-86
2021/08/10 07:42:37;;;;;;;;;;;19.90;91.40;;;17.94;94.46;100612.00;4961523;28;19965;-87
2021/08/10 07:45:05;;;;;;;;;;;19.90;91.30;;;17.97;94.00;100615.13;4961711;28;19937;-88
2021/08/10 07:47:33;;;;;;;;;;;20.00;90.30;;;17.98;94.16;100613.22;4976940;28;19928;-86
2021/08/10 07:50:02;;;;;;;;;;;20.10;90.30;;;18.06;94.14;100614.81;4979246;28;19929;-87
2021/08/10 07:52:30;;;;;;;;;;;20.20;90.20;;;18.09;95.19;100617.13;4956043;28;19926;-89
2021/08/10 07:54:58;;;;;;;;;;;20.30;90.60;;;18.13;94.76;100615.56;4951260;28;19926;-86
2021/08/10 07:57:25;;;;;;;;;;;20.50;90.10;;;18.19;95.33;100608.28;4952882;28;19933;-86
2021/08/10 07:59:53;;;;;;;;;;;20.60;90.10;;;18.24;94.55;100603.78;4950730;28;19925;-89
2021/08/10 08:02:24;;;;;;;;;;;20.70;89.10;;;18.25;94.28;100613.69;4957718;28;19931;-92
2021/08/10 08:04:52;;;;;;;;;;;20.70;88.80;;;18.24;93.78;100623.06;4952641;28;20028;-86
2021/08/10 08:07:20;;;;;;;;;;;20.70;88.40;;;18.29;93.46;100628.69;4952750;28;19926;-87
2021/08/10 08:09:47;;;;;;;;;;;20.50;88.70;;;18.27;93.47;100625.31;4982482;28;19928;-88
2021/08/10 08:12:14;;;;;;;;;;;20.40;89.30;;;18.23;93.50;100626.88;4964604;28;19938;-88
2021/08/10 08:14:44;;;;;;;;;;;20.30;89.80;;;18.16;92.66;100620.59;4950968;29;19961;-88
2021/08/10 08:17:12;;;;;;;;;;;20.30;89.50;;;18.11;92.86;100625.97;4933152;29;20418;-88
2021/08/10 08:19:40;;;;;;;;;;;20.30;89.60;;;18.15;93.24;100629.94;4933241;29;19930;-88
2021/08/10 08:22:08;;;;;;;;;;;20.40;89.40;;;18.22;94.65;100630.72;4933573;29;19981;-88
2021/08/10 08:24:36;;;;;;;;;;;20.50;89.90;;;18.29;95.04;100631.44;4951319;28;19922;-87
2021/08/10 08:27:05;;;;;;;;;;;20.60;89.90;;;18.33;93.51;100621.66;4951743;28;19968;-87
2021/08/10 08:29:32;;;;;;;;;;;20.70;88.50;;;18.40;94.80;100616.03;4968229;28;19926;-87
2021/08/10 08:31:59;;;;;;;;;;;20.80;89.40;;;18.45;94.52;100618.06;4970210;28;20406;-87
2021/08/10 08:34:28;;;;;;;;;;;20.80;88.80;;;18.47;93.96;100604.94;4952921;28;19926;-87
2021/08/10 08:36:56;;;;;;;;;;;20.90;88.50;;;18.54;95.09;100600.13;4952360;28;19930;-88
2021/08/10 08:39:23;;;;;;;;;;;21.10;88.60;;;18.57;94.67;100602.44;4952087;28;20280;-87
2021/08/10 08:41:52;;;;;;;;;;;21.20;88.20;;;18.59;94.74;100604.97;4952573;28;19926;-87
2021/08/10 08:44:20;;;;;;;;;;;21.20;88.20;;;18.65;93.79;100610.34;4970032;28;19926;-87
2021/08/10 08:46:48;;;;;;;;;;;21.20;87.80;;;18.67;93.90;100610.97;4952135;28;19922;-87
2021/08/10 08:49:16;;;;;;;;;;;21.20;87.70;;;18.71;94.80;100614.09;4937543;29;19962;-87
2021/08/10 08:51:46;;;;;;;;;;;21.30;88.40;;;18.72;94.92;100608.34;4933418;29;19926;-87
2021/08/10 08:54:13;;;;;;;;;;;21.30;88.30;;;18.73;94.66;100607.28;4933244;29;19974;-87
2021/08/10 08:56:42;;;;;;;;;;;21.20;88.40;;;18.73;92.58;100600.91;4932844;29;20303;-87
2021/08/10 08:59:11;;;;;;;;;;;21.20;87.10;;;18.65;91.97;100607.59;4992379;23;20020;-84
2021/08/10 09:01:41;;;;;;;;;;;21.20;87.00;;;18.67;93.08;100604.63;5004492;28;19932;-84
2021/08/10 09:04:13;;;;;;;;;;;21.20;87.30;;;18.73;94.08;100601.78;5010558;28;19921;-84
2021/08/10 09:06:45;;;;;;;;;;;21.30;87.70;;;18.75;92.42;100602.38;5010419;28;19925;-84
2021/08/10 09:09:24;;;;;;;;;;;21.30;87.00;;;18.79;92.78;100601.88;5013142;28;19983;-84
2021/08/10 09:11:56;;;;;;;;;;;21.20;87.20;;;18.82;93.56;100601.44;4990800;28;19936;-84
2021/08/10 09:14:42;;;;;;;;;;;21.30;88.00;;;18.87;94.16;100605.19;4990866;28;19926;-84
2021/08/10 09:17:11;;;;;;;;;;;21.30;88.40;;;18.87;93.39;100598.81;5007009;28;19925;-84
2021/08/10 09:19:43;;;;;;;;;;;21.30;87.80;;;18.87;93.17;100609.84;5005530;28;19929;-84
2021/08/10 09:22:19;;;;;;;;;;;21.20;87.80;;;18.86;93.60;100611.75;5004644;28;19985;-84
2021/08/10 09:24:51;;;;;;;;;;;21.20;88.30;;;18.87;93.21;100605.19;4990731;28;20297;-84
2021/08/10 09:27:26;;;;;;;;;;;21.10;88.50;;;18.87;92.77;100609.84;4990486;28;19922;-84
2021/08/10 09:29:56;;;;;;;;;;;20.90;88.60;;;18.85;92.61;100612.84;4991447;28;19925;-84
2021/08/10 09:32:23;;;;;;;;;;;20.90;88.90;;;18.82;92.02;100602.28;4994282;28;19967;-85
2021/08/10 09:35:14;;;;;;;;;;;20.90;88.80;;;18.83;92.21;100605.88;4994331;28;19952;-84
2021/08/10 09:37:41;;;;;;;;;;;20.80;89.00;;;18.85;92.89;100607.34;4993890;28;19921;-85
2021/08/10 09:40:31;;;;;;;;;;;20.80;89.50;;;18.86;92.54;100594.38;4994460;28;19956;-84
2021/08/10 09:43:39;;;;;;;;;;;20.80;89.20;;;18.85;92.08;100595.44;4994352;28;19922;-85
2021/08/10 09:46:22;;;;;;;;;;;20.90;88.80;;;18.86;92.64;100595.19;4993917;28;19939;-84
2021/08/10 09:48:55;;;;;;;;;;;21.00;89.00;;;18.89;94.42;100591.16;4994194;28;19925;-85
2021/08/10 09:51:25;;;;;;;;;;;21.10;88.90;;;18.91;94.05;100589.81;5011940;28;20012;-84
2021/08/10 09:53:58;;;;;;;;;;;21.30;88.80;;;18.96;95.46;100591.84;4980044;28;19925;-85
2021/08/10 09:56:44;;;;;;;;;;;21.40;88.60;;;19.04;95.51;100593.41;4990534;28;19925;-84
2021/08/10 09:59:12;;;;;;;;;;;21.60;88.60;;;19.05;93.46;100587.66;4994401;28;19921;-85
2021/08/10 10:01:42;;;;;;;;;;;21.70;86.90;;;19.07;92.69;100588.28;5026712;28;19933;-84
2021/08/10 10:04:17;;;;;;;;;;;21.80;86.50;;;19.10;91.67;100590.56;5011344;28;19925;-84
2021/08/10 10:06:51;;;;;;;;;;;21.80;86.30;;;19.10;92.67;100587.81;5006448;28;20669;-84
2021/08/10 10:09:19;;;;;;;;;;;21.80;86.20;;;19.13;92.07;100586.47;5010697;28;19956;-84
2021/08/10 10:11:49;;;;;;;;;;;21.90;86.20;;;19.18;91.04;100588.53;5009800;28;19936;-84
2021/08/10 10:14:17;;;;;;;;;;;21.90;85.20;;;19.22;90.56;100582.28;5009830;28;19932;-85
2021/08/10 10:16:48;;;;;;;;;;;22.00;85.20;;;19.27;89.82;100582.41;5010766;28;19968;-86
2021/08/10 10:19:16;;;;;;;;;;;22.00;84.30;;;19.30;91.00;100575.56;5011059;28;19926;-85
2021/08/10 10:21:47;;;;;;;;;;;22.00;85.00;;;19.36;92.27;100587.53;5011113;28;20032;-85
2021/08/10 10:24:15;;;;;;;;;;;22.10;85.60;;;19.39;89.52;100584.31;5010431;28;19953;-86
2021/08/10 10:26:45;;;;;;;;;;;22.10;84.50;;;19.39;88.80;100590.66;5009375;28;19933;-87
2021/08/10 10:29:13;;;;;;;;;;;22.10;84.00;;;19.40;87.68;100588.75;5010735;28;19921;-86
2021/08/10 10:31:41;;;;;;;;;;;22.10;84.00;;;19.42;88.63;100590.19;5009617;28;20011;-86
2021/08/10 10:34:12;;;;;;;;;;;22.00;83.80;;;19.41;86.96;100585.75;5010780;28;19925;-86
2021/08/10 10:36:40;;;;;;;;;;;21.90;84.60;;;19.40;87.34;100586.84;5010758;28;19922;-86
2021/08/10 10:39:08;;;;;;;;;;;21.90;83.50;;;19.49;90.10;100590.06;5010928;28;20012;-89
2021/08/10 10:41:36;;;;;;;;;;;22.00;85.00;;;19.58;91.30;100583.09;5006951;28;20016;-85
2021/08/10 10:44:06;;;;;;;;;;;22.00;85.30;;;19.71;91.40;100587.50;5009814;28;19965;-83
2021/08/10 10:46:35;;;;;;;;;;;22.20;85.90;;;19.72;85.12;100583.69;5008499;28;19959;-90
2021/08/10 10:49:03;;;;;;;;;;;22.30;82.20;;;19.71;85.90;100587.50;5008827;28;20035;-85
2021/08/10 10:51:32;;;;;;;;;;;22.40;82.00;;;19.68;85.48;100583.28;5017537;28;19967;-84
2021/08/10 10:54:23;;;;;;;;;;;22.40;82.20;;;19.71;84.87;100582.00;5023150;28;19956;-85
2021/08/10 10:56:51;;;;;;;;;;;22.50;81.80;;;19.73;85.27;100585.38;5009213;28;19931;-85
2021/08/10 10:59:27;;;;;;;;;;;22.50;80.90;;;19.79;85.18;100583.56;5008498;28;19925;-86
2021/08/10 11:02:12;;;;;;;;;;;22.60;81.00;;;19.82;82.55;100594.97;5009753;28;20377;-84
2021/08/10 11:04:39;;;;;;;;;;;22.60;78.80;;;19.89;84.35;100584.59;5010000;28;19957;-81
2021/08/10 11:07:37;;;;;;;;;;;22.70;79.80;;;19.91;80.78;100596.25;5010221;28;19929;-88
2021/08/10 11:10:05;;;;;;;;;;;22.70;79.00;;;19.92;81.77;100597.09;5010187;28;19956;-88
2021/08/10 11:12:42;;;;;;;;;;;22.70;78.30;;;19.94;80.16;100594.09;5010066;28;20417;-89
2021/08/10 11:15:11;;;;;;;;;;;22.70;77.60;;;19.96;80.47;100587.22;5014655;28;19929;-88
2021/08/10 11:17:48;;;;;;;;;;;22.70;77.80;;;19.97;81.61;100596.34;5010558;28;19964;-93
2021/08/10 11:20:26;;;;;;;;;;;22.70;78.20;;;20.02;82.45;100597.28;5010167;28;19928;-92
2021/08/10 11:23:26;;;;;;;;;;;22.70;80.50;;;20.09;82.25;100578.66;5010776;28;20052;-91
2021/08/10 11:26:34;;;;;;;;;;;22.80;79.70;;;20.14;83.18;100585.34;4992606;28;19925;-87